createdAt,value
2023-09-30T00:01:30.167Z,59.62
2023-09-30T00:03:57.887Z,58.95
2023-09-30T00:06:26.754Z,59.12
2023-09-30T00:08:54.911Z,59.45
2023-09-30T00:11:21.821Z,59.27
2023-09-30T00:13:50.346Z,58.80
2023-09-30T00:16:18.921Z,58.34
2023-09-30T00:18:46.284Z,57.77
2023-09-30T00:21:13.592Z,58.91
2023-09-30T00:23:42.420Z,58.89
2023-09-30T00:26:09.704Z,59.08
2023-09-30T00:28:36.852Z,60.75
2023-09-30T00:31:10.478Z,59.83
2023-09-30T00:33:38.926Z,60.38
2023-09-30T00:36:10.760Z,59.24
2023-09-30T00:38:38.397Z,58.39
2023-09-30T00:41:08.147Z,59.15
2023-09-30T00:43:35.315Z,59.41
2023-09-30T00:46:13.029Z,58.51
2023-09-30T00:48:40.688Z,58.89
2023-09-30T00:51:07.813Z,60.50
2023-09-30T00:53:34.957Z,60.62
2023-09-30T00:56:02.182Z,59.38
2023-09-30T00:58:33.892Z,60.00
2023-09-30T01:01:01.038Z,59.76
2023-09-30T01:03:28.361Z,58.93
2023-09-30T01:05:55.594Z,60.09
2023-09-30T01:08:22.894Z,60.01
2023-09-30T01:10:50.569Z,58.58
2023-09-30T01:13:17.821Z,57.79
2023-09-30T01:15:48.306Z,59.12
2023-09-30T01:18:15.532Z,58.70
2023-09-30T01:20:43.052Z,57.28
2023-09-30T01:23:13.000Z,58.26
2023-09-30T01:25:40.594Z,57.80
2023-09-30T01:28:09.685Z,59.29
2023-09-30T01:30:36.895Z,58.63
2023-09-30T01:33:04.459Z,58.30
2023-09-30T01:35:31.519Z,58.89
2023-09-30T01:38:01.727Z,58.23
2023-09-30T01:40:31.183Z,58.82
2023-09-30T01:42:58.238Z,57.56
2023-09-30T01:45:25.319Z,57.72
2023-09-30T01:47:52.624Z,58.37
2023-09-30T01:50:21.219Z,57.99
2023-09-30T01:52:48.147Z,58.59
2023-09-30T01:55:15.395Z,59.21
2023-09-30T01:57:44.206Z,58.60
2023-09-30T02:00:13.695Z,58.18
2023-09-30T02:02:43.325Z,59.46
2023-09-30T02:05:10.851Z,59.75
2023-09-30T02:07:38.297Z,60.40
2023-09-30T02:10:06.184Z,59.90
2023-09-30T02:12:33.445Z,59.71
2023-09-30T02:15:04.488Z,60.33
2023-09-30T02:17:31.784Z,58.32
2023-09-30T02:19:59.064Z,59.09
2023-09-30T02:22:29.238Z,59.18
2023-09-30T02:24:56.971Z,56.44
2023-09-30T02:27:24.092Z,60.21
2023-09-30T02:29:53.712Z,59.54
2023-09-30T02:32:22.968Z,59.68
2023-09-30T02:34:51.596Z,60.41
2023-09-30T02:37:19.418Z,60.26
2023-09-30T02:39:46.687Z,59.59
2023-09-30T02:42:16.706Z,59.90
2023-09-30T02:44:43.897Z,61.08
2023-09-30T02:47:11.899Z,62.24
2023-09-30T02:49:40.466Z,62.22
2023-09-30T02:52:07.557Z,60.32
2023-09-30T02:54:34.640Z,61.03
2023-09-30T02:57:01.890Z,60.75
2023-09-30T02:59:31.904Z,60.11
2023-09-30T03:01:59.084Z,60.46
2023-09-30T03:04:29.783Z,60.27
2023-09-30T03:06:58.986Z,60.77
2023-09-30T03:09:26.163Z,60.38
2023-09-30T03:12:00.515Z,60.96
2023-09-30T03:14:27.732Z,60.28
2023-09-30T03:16:54.767Z,59.42
2023-09-30T03:19:22.561Z,59.56
2023-09-30T03:21:49.604Z,59.05
2023-09-30T03:24:18.103Z,60.15
2023-09-30T03:26:45.260Z,60.70
2023-09-30T03:29:12.406Z,60.80
2023-09-30T03:31:39.587Z,61.00
2023-09-30T03:34:09.874Z,60.01
2023-09-30T03:36:38.154Z,60.02
2023-09-30T03:39:09.684Z,60.94
2023-09-30T03:41:38.478Z,60.89
2023-09-30T03:44:05.579Z,61.59
2023-09-30T03:46:32.712Z,61.13
2023-09-30T03:49:00.486Z,61.08
2023-09-30T03:51:27.730Z,61.54
2023-09-30T03:53:54.810Z,61.46
2023-09-30T03:56:23.773Z,61.33
2023-09-30T03:58:53.873Z,61.96
2023-09-30T04:01:21.468Z,62.17
2023-09-30T04:03:48.728Z,62.45
2023-09-30T04:06:15.989Z,62.48
2023-09-30T04:08:46.179Z,62.30
2023-09-30T04:11:18.988Z,62.82
2023-09-30T04:13:46.588Z,62.84
2023-09-30T04:16:15.050Z,63.72
2023-09-30T04:18:42.687Z,63.74
2023-09-30T04:21:09.827Z,63.74
2023-09-30T04:23:37.848Z,63.57
2023-09-30T04:26:06.399Z,64.34
2023-09-30T04:28:35.369Z,64.89
2023-09-30T04:31:04.332Z,63.97
2023-09-30T04:33:33.407Z,64.24
2023-09-30T04:36:00.498Z,65.14
2023-09-30T04:38:27.584Z,64.82
2023-09-30T04:40:55.639Z,64.70
2023-09-30T04:43:22.718Z,63.91
2023-09-30T04:45:53.810Z,63.52
2023-09-30T04:48:21.393Z,64.50
2023-09-30T04:50:50.317Z,65.23
2023-09-30T04:53:18.739Z,65.25
2023-09-30T04:55:45.953Z,65.02
2023-09-30T04:58:13.998Z,65.86
2023-09-30T05:00:41.138Z,66.08
2023-09-30T05:03:08.483Z,66.65
2023-09-30T05:05:36.433Z,66.99
2023-09-30T05:08:05.422Z,66.74
2023-09-30T05:10:32.674Z,66.63
2023-09-30T05:12:59.816Z,65.71
2023-09-30T05:15:27.034Z,65.58
2023-09-30T05:17:54.201Z,64.94
2023-09-30T05:20:21.750Z,64.91
2023-09-30T05:22:49.999Z,63.51
2023-09-30T05:25:19.339Z,63.21
2023-09-30T05:27:49.234Z,64.43
2023-09-30T05:30:17.299Z,62.93
2023-09-30T05:32:44.627Z,63.80
2023-09-30T05:35:14.844Z,63.53
2023-09-30T05:37:42.560Z,63.51
2023-09-30T05:40:23.650Z,63.11
2023-09-30T05:42:53.425Z,62.79
2023-09-30T05:45:21.155Z,61.95
2023-09-30T05:47:51.786Z,61.69
2023-09-30T05:50:25.054Z,62.41
2023-09-30T05:52:52.392Z,62.07
2023-09-30T05:55:23.318Z,61.30
2023-09-30T05:57:53.470Z,61.74
2023-09-30T06:00:24.564Z,60.78
2023-09-30T06:02:52.959Z,60.82
2023-09-30T06:05:20.505Z,60.66
2023-09-30T06:07:47.711Z,60.28
2023-09-30T06:10:19.893Z,60.02
2023-09-30T06:12:47.809Z,58.69
2023-09-30T06:15:17.049Z,58.42
2023-09-30T06:17:45.153Z,57.30
2023-09-30T06:20:17.575Z,55.14
2023-09-30T06:22:46.526Z,55.43
2023-09-30T06:25:16.296Z,54.54
2023-09-30T06:27:43.803Z,52.70
2023-09-30T06:30:12.092Z,52.80
2023-09-30T06:32:41.706Z,52.79
2023-09-30T06:35:11.570Z,52.55
2023-09-30T06:37:39.058Z,51.53
2023-09-30T06:40:10.701Z,51.10
2023-09-30T06:42:44.080Z,52.06
2023-09-30T06:45:11.781Z,51.01
2023-09-30T06:47:42.623Z,50.23
2023-09-30T06:50:12.311Z,50.54
2023-09-30T06:52:40.189Z,48.27
2023-09-30T06:55:09.517Z,47.76
2023-09-30T06:57:38.073Z,46.23
2023-09-30T07:00:09.859Z,45.54
2023-09-30T07:02:37.602Z,45.04
2023-09-30T07:05:09.324Z,44.81
2023-09-30T07:07:36.641Z,44.94
2023-09-30T07:10:05.328Z,45.21
2023-09-30T07:12:37.394Z,44.37
2023-09-30T07:15:06.712Z,43.27
2023-09-30T07:17:35.835Z,43.17
2023-09-30T07:20:10.975Z,43.13
2023-09-30T07:22:50.390Z,42.90
2023-09-30T07:25:33.154Z,42.39
2023-09-30T07:28:42.629Z,41.48
2023-09-30T07:31:45.597Z,40.15
2023-09-30T07:42:09.727Z,40.47
2023-09-30T07:44:39.829Z,39.44
2023-09-30T07:47:13.563Z,36.54
2023-09-30T07:49:42.165Z,37.24
2023-09-30T07:52:09.685Z,37.02
2023-09-30T07:54:36.767Z,36.00
2023-09-30T07:57:04.064Z,36.36
2023-09-30T07:59:34.577Z,34.35
2023-09-30T08:02:02.853Z,33.58
2023-09-30T08:04:31.103Z,34.07
2023-09-30T08:06:58.806Z,32.29
2023-09-30T08:09:25.819Z,32.87
2023-09-30T08:11:54.883Z,33.53
2023-09-30T08:14:22.113Z,32.28
2023-09-30T08:16:50.843Z,29.33
2023-09-30T08:19:18.134Z,28.96
2023-09-30T08:21:46.449Z,29.16
2023-09-30T08:24:13.551Z,29.01
2023-09-30T08:26:40.679Z,28.99
2023-09-30T08:29:07.684Z,27.81
2023-09-30T08:31:35.127Z,28.05
2023-09-30T08:34:05.191Z,27.10
2023-09-30T08:36:32.519Z,27.32
2023-09-30T08:38:59.952Z,27.22
2023-09-30T08:41:33.245Z,25.92
2023-09-30T08:44:01.966Z,26.77
2023-09-30T08:46:32.079Z,26.23
2023-09-30T08:49:00.196Z,26.37
2023-09-30T08:51:30.202Z,25.58
2023-09-30T08:53:57.908Z,24.98
2023-09-30T08:56:26.423Z,26.49
2023-09-30T08:58:58.218Z,26.43
2023-09-30T09:01:26.117Z,24.49
2023-09-30T09:03:54.067Z,24.42
2023-09-30T09:06:22.372Z,23.76
2023-09-30T09:08:51.526Z,24.23
2023-09-30T09:11:19.220Z,23.05
2023-09-30T09:13:57.132Z,24.17
2023-09-30T09:16:27.080Z,25.15
2023-09-30T09:18:54.556Z,23.74
2023-09-30T09:21:27.581Z,23.21
2023-09-30T09:23:57.451Z,22.54
2023-09-30T09:26:26.548Z,23.80
2023-09-30T09:28:57.968Z,22.39
2023-09-30T09:31:27.067Z,22.99
2023-09-30T09:33:54.558Z,21.84
2023-09-30T09:36:22.057Z,21.97
2023-09-30T09:38:51.148Z,22.55
2023-09-30T09:41:19.759Z,22.18
2023-09-30T09:43:50.798Z,21.71
2023-09-30T09:46:18.735Z,22.92
2023-09-30T09:48:48.688Z,22.28
2023-09-30T09:51:18.736Z,22.80
2023-09-30T09:53:46.123Z,22.32
2023-09-30T09:56:13.810Z,20.86
2023-09-30T09:58:43.843Z,21.35
2023-09-30T10:01:11.669Z,21.58
2023-09-30T10:03:39.736Z,21.18
2023-09-30T10:06:07.445Z,21.45
2023-09-30T10:08:38.201Z,21.10
2023-09-30T10:11:05.470Z,21.02
2023-09-30T10:13:53.870Z,20.80
2023-09-30T10:16:49.615Z,20.04
2023-09-30T10:19:19.210Z,20.13
2023-09-30T10:22:23.771Z,20.71
2023-09-30T10:24:51.696Z,21.14
2023-09-30T10:27:36.204Z,20.49
2023-09-30T10:30:14.694Z,19.29
2023-09-30T10:33:11.174Z,20.33
2023-09-30T10:35:47.523Z,20.19
2023-09-30T10:38:41.569Z,18.97
2023-09-30T10:41:09.770Z,19.91
2023-09-30T10:43:39.116Z,19.27
2023-09-30T10:46:38.143Z,18.60
2023-09-30T10:49:37.007Z,18.44
2023-09-30T10:52:04.214Z,18.50
2023-09-30T10:54:32.513Z,19.55
2023-09-30T10:57:00.815Z,20.21
2023-09-30T10:59:28.964Z,20.75
2023-09-30T11:01:58.293Z,19.37
2023-09-30T11:04:27.604Z,19.39
2023-09-30T11:06:55.037Z,20.19
2023-09-30T11:09:22.571Z,20.09
2023-09-30T11:11:51.112Z,20.59
2023-09-30T11:14:19.303Z,20.88
2023-09-30T11:16:46.559Z,20.09
2023-09-30T11:19:16.177Z,20.82
2023-09-30T11:21:45.195Z,19.86
2023-09-30T11:24:13.019Z,19.57
2023-09-30T11:26:42.380Z,18.97
2023-09-30T11:29:12.517Z,20.22
2023-09-30T11:31:40.107Z,19.57
2023-09-30T11:34:08.647Z,18.25
2023-09-30T11:36:39.317Z,18.56
2023-09-30T11:39:06.858Z,19.02
2023-09-30T11:41:35.032Z,19.44
2023-09-30T11:44:10.777Z,19.26
2023-09-30T11:46:50.495Z,19.07
2023-09-30T11:49:31.165Z,19.27
2023-09-30T11:52:01.105Z,19.23
2023-09-30T11:54:33.490Z,20.03
2023-09-30T11:57:01.743Z,20.08
2023-09-30T11:59:28.799Z,19.63
2023-09-30T12:02:10.708Z,20.13
2023-09-30T12:04:41.330Z,18.81
2023-09-30T12:07:09.937Z,19.32
2023-09-30T12:09:38.771Z,19.54
2023-09-30T12:12:11.710Z,19.64
2023-09-30T12:14:39.400Z,19.15
2023-09-30T12:17:06.610Z,19.17
2023-09-30T12:19:33.667Z,19.71
2023-09-30T12:22:00.760Z,19.46
2023-09-30T12:24:29.440Z,19.25
2023-09-30T12:26:56.514Z,19.74
2023-09-30T12:29:23.901Z,19.01
2023-09-30T12:31:54.189Z,19.28
2023-09-30T12:34:25.042Z,18.45
2023-09-30T12:36:52.847Z,18.48
2023-09-30T12:39:25.401Z,18.45
2023-09-30T12:41:57.532Z,18.88
2023-09-30T12:44:24.736Z,18.74
2023-09-30T12:46:51.725Z,18.50
2023-09-30T12:49:19.920Z,17.82
2023-09-30T12:51:47.778Z,19.13
2023-09-30T12:54:16.105Z,18.97
2023-09-30T12:56:43.714Z,18.53
2023-09-30T12:59:12.201Z,18.22
2023-09-30T13:01:40.306Z,18.48
2023-09-30T13:04:09.707Z,19.12
2023-09-30T13:06:37.705Z,18.53
2023-09-30T13:09:09.914Z,18.21
2023-09-30T13:11:37.688Z,18.58
2023-09-30T13:14:05.422Z,18.69
2023-09-30T13:16:34.849Z,17.69
2023-09-30T13:19:03.254Z,18.03
2023-09-30T13:21:31.329Z,18.29
2023-09-30T13:23:58.442Z,18.64
2023-09-30T13:26:26.712Z,18.47
2023-09-30T13:28:53.786Z,17.73
2023-09-30T13:31:20.927Z,18.21
2023-09-30T13:33:49.490Z,18.74
2023-09-30T13:36:16.690Z,18.94
2023-09-30T13:38:43.466Z,22.51
2023-09-30T13:41:10.571Z,22.04
2023-09-30T13:43:37.415Z,20.71
2023-09-30T13:46:05.257Z,19.84
2023-09-30T13:48:32.525Z,20.06
2023-09-30T13:51:06.786Z,20.28
2023-09-30T13:53:33.940Z,19.81
2023-09-30T13:56:01.089Z,19.50
2023-09-30T13:58:28.041Z,19.73
2023-09-30T14:00:55.146Z,20.27
2023-09-30T14:03:22.194Z,19.71
2023-09-30T14:05:49.373Z,20.64
2023-09-30T14:08:17.921Z,20.51
2023-09-30T14:10:45.489Z,21.46
2023-09-30T14:13:12.685Z,21.22
2023-09-30T14:15:39.817Z,21.07
2023-09-30T14:18:07.603Z,21.12
2023-09-30T14:20:37.507Z,19.82
2023-09-30T14:23:04.902Z,20.57
2023-09-30T14:25:33.761Z,20.24
2023-09-30T14:28:01.466Z,21.01
2023-09-30T14:30:28.825Z,21.05
2023-09-30T14:32:55.933Z,20.50
2023-09-30T14:35:23.176Z,19.98
2023-09-30T14:37:50.271Z,20.37
2023-09-30T14:40:17.416Z,19.52
2023-09-30T14:42:46.010Z,20.20
2023-09-30T14:45:13.148Z,21.10
2023-09-30T14:47:42.217Z,21.09
2023-09-30T14:50:11.616Z,20.92
2023-09-30T14:52:38.698Z,20.82
2023-09-30T14:55:06.517Z,21.14
2023-09-30T14:57:33.634Z,21.61
2023-09-30T15:00:02.092Z,21.32
2023-09-30T15:02:29.221Z,22.18
2023-09-30T15:04:56.434Z,22.12
2023-09-30T15:07:23.698Z,22.92
2023-09-30T15:09:52.241Z,23.33
2023-09-30T15:12:19.417Z,23.27
2023-09-30T15:14:46.560Z,23.35
2023-09-30T15:17:14.989Z,23.32
2023-09-30T15:19:42.053Z,23.69
2023-09-30T15:22:09.281Z,25.29
2023-09-30T15:24:36.496Z,24.90
2023-09-30T15:27:03.823Z,25.84
2023-09-30T15:29:30.849Z,26.52
2023-09-30T15:31:58.045Z,27.26
2023-09-30T15:34:26.445Z,27.19
2023-09-30T15:36:53.490Z,27.35
2023-09-30T15:39:20.751Z,27.26
2023-09-30T15:41:48.191Z,28.82
2023-09-30T15:44:15.192Z,30.76
2023-09-30T15:46:42.311Z,30.25
2023-09-30T15:49:09.550Z,29.80
2023-09-30T15:51:38.085Z,31.00
2023-09-30T15:54:06.177Z,32.46
2023-09-30T15:56:42.155Z,33.54
2023-09-30T15:59:20.925Z,33.76
2023-09-30T16:01:48.082Z,34.59
2023-09-30T16:04:15.238Z,35.06
2023-09-30T16:06:43.779Z,35.93
2023-09-30T16:09:10.962Z,36.06
2023-09-30T16:11:38.112Z,37.05
2023-09-30T16:14:05.385Z,37.90
2023-09-30T16:16:32.580Z,37.94
2023-09-30T16:18:59.807Z,38.63
2023-09-30T16:21:29.263Z,39.31
2023-09-30T16:23:58.113Z,39.66
2023-09-30T16:26:25.319Z,40.05
2023-09-30T16:28:52.427Z,40.13
2023-09-30T16:31:19.635Z,40.68
2023-09-30T16:33:46.849Z,40.73
2023-09-30T16:36:13.828Z,40.76
2023-09-30T16:38:40.811Z,40.87
2023-09-30T16:41:09.299Z,41.79
2023-09-30T16:43:36.365Z,42.05
2023-09-30T16:46:03.721Z,42.21
2023-09-30T16:48:30.870Z,42.07
2023-09-30T16:50:58.040Z,42.38
2023-09-30T16:53:26.042Z,43.26
2023-09-30T16:55:53.305Z,43.29
2023-09-30T16:58:21.708Z,43.85
2023-09-30T17:00:48.981Z,43.99
2023-09-30T17:03:16.268Z,43.80
2023-09-30T17:05:44.163Z,44.18
2023-09-30T17:08:11.024Z,43.96
2023-09-30T17:10:41.914Z,44.11
2023-09-30T17:13:09.070Z,44.46
2023-09-30T17:15:42.057Z,44.62
2023-09-30T17:18:09.519Z,44.83
2023-09-30T17:20:36.652Z,44.66
2023-09-30T17:23:04.065Z,44.52
2023-09-30T17:25:32.356Z,44.88
2023-09-30T17:27:59.484Z,44.54
2023-09-30T17:30:40.150Z,45.02
2023-09-30T17:33:10.878Z,44.87
2023-09-30T17:35:39.783Z,45.52
2023-09-30T17:38:06.977Z,45.17
2023-09-30T17:40:34.160Z,45.18
2023-09-30T17:43:01.249Z,45.44
2023-09-30T17:45:28.526Z,45.62
2023-09-30T17:47:55.697Z,45.76
2023-09-30T17:50:25.633Z,46.36
2023-09-30T17:52:52.937Z,46.16
2023-09-30T17:55:21.547Z,46.24
2023-09-30T17:57:48.744Z,47.00
2023-09-30T18:00:16.784Z,47.04
2023-09-30T18:02:43.933Z,46.37
2023-09-30T18:05:11.215Z,46.13
2023-09-30T18:07:39.711Z,46.71
2023-09-30T18:10:08.039Z,46.59
2023-09-30T18:12:35.412Z,46.96
2023-09-30T18:15:02.447Z,46.28
2023-09-30T18:17:29.773Z,46.81
2023-09-30T18:19:56.909Z,47.52
2023-09-30T18:22:24.521Z,47.71
2023-09-30T18:24:53.027Z,47.52
2023-09-30T18:27:20.406Z,47.64
2023-09-30T18:29:47.521Z,47.67
2023-09-30T18:32:14.662Z,47.51
2023-09-30T18:34:41.811Z,46.74
2023-09-30T18:37:09.045Z,47.12
2023-09-30T18:39:36.171Z,47.42
2023-09-30T18:42:05.230Z,47.69
2023-09-30T18:44:32.253Z,47.76
2023-09-30T18:46:59.259Z,47.65
2023-09-30T18:49:45.878Z,48.24
2023-09-30T18:52:13.059Z,48.45
2023-09-30T18:54:40.204Z,48.88
2023-09-30T18:57:08.781Z,48.36
2023-09-30T18:59:35.827Z,48.66
2023-09-30T19:02:04.789Z,48.65
2023-09-30T19:04:33.050Z,48.67
2023-09-30T19:07:01.139Z,48.94
2023-09-30T19:09:27.983Z,49.95
2023-09-30T19:11:55.088Z,49.90
2023-09-30T19:14:24.843Z,49.67
2023-09-30T19:16:55.035Z,50.29
2023-09-30T19:19:22.215Z,50.07
2023-09-30T19:21:49.353Z,49.86
2023-09-30T19:24:16.461Z,50.49
2023-09-30T19:26:43.614Z,49.76
2023-09-30T19:29:10.871Z,50.37
2023-09-30T19:31:39.439Z,50.09
2023-09-30T19:34:06.594Z,50.40
2023-09-30T19:36:33.703Z,51.08
2023-09-30T19:39:00.893Z,50.84
2023-09-30T19:41:27.856Z,50.81
2023-09-30T19:43:57.659Z,50.99
2023-09-30T19:46:25.421Z,51.35
2023-09-30T19:48:55.901Z,51.43
2023-09-30T19:51:26.068Z,51.16
2023-09-30T19:53:53.390Z,51.96
2023-09-30T19:56:20.420Z,51.55
2023-09-30T19:58:47.576Z,51.58
2023-09-30T20:01:14.702Z,51.27
2023-09-30T20:03:44.052Z,51.47
2023-09-30T20:06:20.766Z,50.78
2023-09-30T20:08:48.993Z,51.20
2023-09-30T20:11:19.441Z,50.98
2023-09-30T20:13:47.332Z,51.87
2023-09-30T20:16:17.607Z,51.66
2023-09-30T20:18:45.431Z,52.30
2023-09-30T20:21:14.222Z,51.87
2023-09-30T20:23:43.148Z,51.30
2023-09-30T20:26:19.736Z,51.05
2023-09-30T20:28:47.035Z,51.86
2023-09-30T20:31:14.628Z,52.62
2023-09-30T20:33:41.915Z,52.00
2023-09-30T20:36:09.037Z,52.79
2023-09-30T20:38:36.412Z,53.72
2023-09-30T20:41:08.524Z,53.31
2023-09-30T20:43:35.721Z,53.78
2023-09-30T20:46:04.006Z,55.06
2023-09-30T20:48:31.270Z,55.28
2023-09-30T20:50:58.371Z,55.26
2023-09-30T20:53:27.253Z,54.26
2023-09-30T20:55:54.307Z,54.36
2023-09-30T20:58:22.802Z,54.38
2023-09-30T21:00:49.975Z,55.37
2023-09-30T21:03:17.863Z,54.88
2023-09-30T21:05:45.735Z,54.64
2023-09-30T21:08:18.048Z,54.43
2023-09-30T21:10:45.322Z,54.02
2023-09-30T21:13:12.400Z,54.45
2023-09-30T21:15:41.014Z,53.46
2023-09-30T21:18:08.222Z,52.95
2023-09-30T21:20:35.434Z,52.92
2023-09-30T21:23:02.576Z,52.50
2023-09-30T21:25:29.609Z,51.99
2023-09-30T21:27:57.072Z,54.99
2023-09-30T21:30:24.489Z,53.54
2023-09-30T21:32:52.881Z,53.80
2023-09-30T21:35:20.145Z,52.17
2023-09-30T21:37:48.607Z,51.94
2023-09-30T21:40:16.080Z,53.60
2023-09-30T21:42:43.420Z,52.63
2023-09-30T21:45:11.617Z,51.91
2023-09-30T21:47:38.820Z,53.95
2023-09-30T21:50:08.126Z,53.50
2023-09-30T21:52:35.166Z,53.96
2023-09-30T21:55:02.514Z,53.61
2023-09-30T21:57:29.560Z,53.58
2023-09-30T21:59:56.622Z,53.48
2023-09-30T22:02:24.028Z,53.65
2023-09-30T22:04:51.377Z,53.15
2023-09-30T22:07:23.389Z,54.08
2023-09-30T22:09:50.530Z,53.02
2023-09-30T22:12:17.644Z,53.15
2023-09-30T22:14:44.939Z,53.65
2023-09-30T22:17:11.953Z,53.47
2023-09-30T22:19:39.213Z,53.86
2023-09-30T22:22:12.804Z,54.06
2023-09-30T22:24:41.682Z,53.49
2023-09-30T22:27:08.820Z,53.20
2023-09-30T22:29:36.136Z,53.13
2023-09-30T22:32:03.293Z,53.36
2023-09-30T22:34:30.432Z,53.26
2023-09-30T22:36:57.703Z,53.33
2023-09-30T22:39:24.851Z,53.13
2023-09-30T22:41:53.590Z,53.39
2023-09-30T22:44:20.891Z,53.38
2023-09-30T22:46:48.225Z,52.92
2023-09-30T22:49:15.633Z,52.94
2023-09-30T22:51:43.119Z,53.04
2023-09-30T22:54:11.243Z,53.49
2023-09-30T22:56:38.040Z,52.72
2023-09-30T22:59:08.784Z,52.84
2023-09-30T23:01:37.552Z,52.61
2023-09-30T23:04:05.375Z,52.51
2023-09-30T23:06:34.134Z,51.72
2023-09-30T23:09:01.348Z,51.69
2023-09-30T23:11:29.056Z,51.97
2023-09-30T23:13:56.557Z,51.04
2023-09-30T23:16:25.395Z,51.08
2023-09-30T23:18:52.805Z,51.12
2023-09-30T23:21:20.128Z,51.13
2023-09-30T23:23:47.209Z,50.61
2023-09-30T23:26:14.565Z,50.74
2023-09-30T23:28:41.864Z,50.07
2023-09-30T23:31:09.357Z,50.39
2023-09-30T23:33:39.720Z,49.46
2023-09-30T23:36:07.492Z,49.51
2023-09-30T23:38:34.536Z,49.54
2023-09-30T23:41:04.280Z,49.01
2023-09-30T23:43:33.012Z,48.27
2023-09-30T23:46:00.236Z,48.49
2023-09-30T23:48:27.661Z,48.77
2023-09-30T23:50:57.007Z,48.39
2023-09-30T23:53:25.172Z,48.26
2023-09-30T23:55:52.131Z,48.28
2023-09-30T23:58:19.424Z,48.89
